Claymont, Delaware
Current Conditions -  °F | °C
As of 3:51 PM on Friday 28 Nov 2014 (Local Time) from KILG Reporting Station
Clear Clear  
Wind Chill: 28°   Ceiling: Unl
Heat Index: 36°   Visibility: 10mi
Dew Point: 14°   Wind: 13mph
Humidity: 41%   Direction: 310°NW
Pressure: 30.26"   Gusts: NA
Location:  39.8°N, 75.46°W
Report Text: KILG 282051Z AUTO 31011KT 10SM CLR 02/M10 A3026 RMK AO2 SLP247 T00221100 53005
Loading
Personal Weather Stations






























Interactive Weather Map New forecast layout! Learn more

10-Day Weather Forecast

Advertisements
Track Severe Weather on mobile